Avon, Montana
Current Conditions -  °F | °C
As of 6:53 AM on Thursday 18 Dec 2014 (Local Time) from KHLN Reporting Station
Broken Clouds Broken Clouds  
Wind Chill: 23°   Ceiling: 6000
Heat Index: 23°   Visibility: 10mi
Dew Point: 21°   Wind: 3mph
Humidity: 92%   Direction: 270°W
Pressure: 30"   Gusts: NA
Location:  46.59°N, 112.61°W
Report Text: KHLN 181353Z 27003KT 10SM BKN060 M05/M06 A3000 RMK AO2 SLP219 T10501061
Loading
Personal Weather Stations






























Interactive Weather Map New forecast layout! Learn more

10-Day Weather Forecast

Advertisements
Track Severe Weather on mobile